sensor_id;sensor_type;location;lat;lon;timestamp;P1;durP1;ratioP1;P2;durP2;ratioP2
70576;SDS011;58138;43.138;24.702;2022-07-29T00:01:49;12.68;;;10.50;;
70576;SDS011;58138;43.138;24.702;2022-07-29T00:04:17;11.80;;;10.60;;
70576;SDS011;58138;43.138;24.702;2022-07-29T00:06:43;11.57;;;10.30;;
70576;SDS011;58138;43.138;24.702;2022-07-29T00:09:08;11.88;;;10.68;;
70576;SDS011;58138;43.138;24.702;2022-07-29T00:11:34;12.23;;;10.73;;
70576;SDS011;58138;43.138;24.702;2022-07-29T00:13:59;13.02;;;11.27;;
70576;SDS011;58138;43.138;24.702;2022-07-29T00:16:25;14.63;;;12.55;;
70576;SDS011;58138;43.138;24.702;2022-07-29T00:18:50;15.18;;;10.25;;
70576;SDS011;58138;43.138;24.702;2022-07-29T00:21:16;11.05;;;9.98;;
70576;SDS011;58138;43.138;24.702;2022-07-29T00:23:41;12.15;;;10.88;;
70576;SDS011;58138;43.138;24.702;2022-07-29T00:26:07;12.60;;;11.30;;
70576;SDS011;58138;43.138;24.702;2022-07-29T00:28:32;11.60;;;10.48;;
70576;SDS011;58138;43.138;24.702;2022-07-29T00:30:58;12.95;;;11.18;;
70576;SDS011;58138;43.138;24.702;2022-07-29T00:33:23;14.27;;;10.93;;
70576;SDS011;58138;43.138;24.702;2022-07-29T00:35:49;13.88;;;10.98;;
70576;SDS011;58138;43.138;24.702;2022-07-29T00:38:15;14.23;;;11.27;;
70576;SDS011;58138;43.138;24.702;2022-07-29T00:40:42;13.45;;;11.10;;
70576;SDS011;58138;43.138;24.702;2022-07-29T00:43:08;11.25;;;10.07;;
70576;SDS011;58138;43.138;24.702;2022-07-29T00:45:34;11.35;;;10.25;;
70576;SDS011;58138;43.138;24.702;2022-07-29T00:48:00;7.10;;;6.15;;
70576;SDS011;58138;43.138;24.702;2022-07-29T00:50:25;13.82;;;10.55;;
70576;SDS011;58138;43.138;24.702;2022-07-29T00:52:51;12.27;;;10.82;;
70576;SDS011;58138;43.138;24.702;2022-07-29T00:55:17;12.10;;;10.80;;
70576;SDS011;58138;43.138;24.702;2022-07-29T00:57:44;12.00;;;10.18;;
70576;SDS011;58138;43.138;24.702;2022-07-29T01:00:14;13.10;;;10.40;;
70576;SDS011;58138;43.138;24.702;2022-07-29T01:02:45;11.95;;;10.35;;
70576;SDS011;58138;43.138;24.702;2022-07-29T01:05:13;11.82;;;10.73;;
70576;SDS011;58138;43.138;24.702;2022-07-29T01:07:40;12.38;;;10.23;;
70576;SDS011;58138;43.138;24.702;2022-07-29T01:10:06;11.57;;;9.73;;
70576;SDS011;58138;43.138;24.702;2022-07-29T01:12:33;12.90;;;10.43;;
70576;SDS011;58138;43.138;24.702;2022-07-29T01:15:03;12.70;;;10.82;;
70576;SDS011;58138;43.138;24.702;2022-07-29T01:17:37;12.35;;;11.15;;
70576;SDS011;58138;43.138;24.702;2022-07-29T01:20:10;12.13;;;10.88;;
70576;SDS011;58138;43.138;24.702;2022-07-29T01:31:16;12.88;;;11.15;;
70576;SDS011;58138;43.138;24.702;2022-07-29T01:33:47;14.93;;;11.23;;
70576;SDS011;58138;43.138;24.702;2022-07-29T01:39:44;12.35;;;11.05;;
70576;SDS011;58138;43.138;24.702;2022-07-29T01:42:07;13.80;;;12.38;;
70576;SDS011;58138;43.138;24.702;2022-07-29T01:47:37;13.70;;;12.25;;
70576;SDS011;58138;43.138;24.702;2022-07-29T01:50:07;15.52;;;12.40;;
70576;SDS011;58138;43.138;24.702;2022-07-29T01:52:39;15.32;;;11.80;;
70576;SDS011;58138;43.138;24.702;2022-07-29T01:55:13;14.65;;;12.45;;
70576;SDS011;58138;43.138;24.702;2022-07-29T01:57:42;14.13;;;12.15;;
70576;SDS011;58138;43.138;24.702;2022-07-29T02:00:08;16.80;;;11.55;;
70576;SDS011;58138;43.138;24.702;2022-07-29T02:02:35;12.63;;;11.23;;
70576;SDS011;58138;43.138;24.702;2022-07-29T02:05:00;15.07;;;11.90;;
70576;SDS011;58138;43.138;24.702;2022-07-29T02:07:28;14.88;;;12.07;;
70576;SDS011;58138;43.138;24.702;2022-07-29T02:09:54;12.02;;;10.82;;
70576;SDS011;58138;43.138;24.702;2022-07-29T02:12:20;12.57;;;9.45;;
70576;SDS011;58138;43.138;24.702;2022-07-29T02:14:49;17.00;;;9.98;;
70576;SDS011;58138;43.138;24.702;2022-07-29T02:17:19;14.52;;;11.82;;
70576;SDS011;58138;43.138;24.702;2022-07-29T02:19:47;14.25;;;11.27;;
70576;SDS011;58138;43.138;24.702;2022-07-29T02:22:13;13.80;;;12.40;;
70576;SDS011;58138;43.138;24.702;2022-07-29T02:24:39;13.50;;;10.98;;
70576;SDS011;58138;43.138;24.702;2022-07-29T02:27:06;12.65;;;11.25;;
70576;SDS011;58138;43.138;24.702;2022-07-29T02:29:32;16.23;;;11.45;;
70576;SDS011;58138;43.138;24.702;2022-07-29T02:31:59;14.18;;;11.77;;
70576;SDS011;58138;43.138;24.702;2022-07-29T02:34:26;13.85;;;11.30;;
70576;SDS011;58138;43.138;24.702;2022-07-29T02:36:52;14.43;;;10.93;;
70576;SDS011;58138;43.138;24.702;2022-07-29T02:39:19;15.63;;;12.00;;
70576;SDS011;58138;43.138;24.702;2022-07-29T02:41:52;17.25;;;12.38;;
70576;SDS011;58138;43.138;24.702;2022-07-29T02:44:21;12.85;;;11.55;;
70576;SDS011;58138;43.138;24.702;2022-07-29T02:46:55;17.40;;;11.70;;
70576;SDS011;58138;43.138;24.702;2022-07-29T02:49:38;13.00;;;11.68;;
70576;SDS011;58138;43.138;24.702;2022-07-29T02:52:12;15.18;;;12.05;;
70576;SDS011;58138;43.138;24.702;2022-07-29T02:54:42;20.85;;;11.73;;
70576;SDS011;58138;43.138;24.702;2022-07-29T02:57:16;13.27;;;11.63;;
70576;SDS011;58138;43.138;24.702;2022-07-29T02:59:45;12.88;;;11.57;;
70576;SDS011;58138;43.138;24.702;2022-07-29T03:02:13;12.77;;;10.48;;
70576;SDS011;58138;43.138;24.702;2022-07-29T03:04:39;15.35;;;11.95;;
70576;SDS011;58138;43.138;24.702;2022-07-29T03:07:06;13.10;;;11.70;;
70576;SDS011;58138;43.138;24.702;2022-07-29T03:09:32;12.68;;;10.93;;
70576;SDS011;58138;43.138;24.702;2022-07-29T03:11:58;12.63;;;10.75;;
70576;SDS011;58138;43.138;24.702;2022-07-29T03:14:24;11.35;;;10.18;;
70576;SDS011;58138;43.138;24.702;2022-07-29T03:16:50;14.95;;;11.10;;
70576;SDS011;58138;43.138;24.702;2022-07-29T03:19:17;15.50;;;10.43;;
70576;SDS011;58138;43.138;24.702;2022-07-29T03:21:43;12.52;;;10.80;;
70576;SDS011;58138;43.138;24.702;2022-07-29T03:24:08;11.48;;;10.27;;
70576;SDS011;58138;43.138;24.702;2022-07-29T03:26:34;13.80;;;11.38;;
70576;SDS011;58138;43.138;24.702;2022-07-29T03:29:00;14.32;;;11.90;;
70576;SDS011;58138;43.138;24.702;2022-07-29T03:31:25;12.43;;;10.27;;
70576;SDS011;58138;43.138;24.702;2022-07-29T03:33:50;12.32;;;11.13;;
70576;SDS011;58138;43.138;24.702;2022-07-29T03:36:16;12.35;;;10.35;;
70576;SDS011;58138;43.138;24.702;2022-07-29T03:38:42;13.52;;;11.00;;
70576;SDS011;58138;43.138;24.702;2022-07-29T03:41:09;14.65;;;11.82;;
70576;SDS011;58138;43.138;24.702;2022-07-29T03:43:36;12.95;;;11.20;;
70576;SDS011;58138;43.138;24.702;2022-07-29T03:46:03;12.73;;;10.68;;
70576;SDS011;58138;43.138;24.702;2022-07-29T03:48:29;11.93;;;10.23;;
70576;SDS011;58138;43.138;24.702;2022-07-29T03:50:56;14.68;;;13.27;;
70576;SDS011;58138;43.138;24.702;2022-07-29T03:53:21;14.98;;;10.85;;
70576;SDS011;58138;43.138;24.702;2022-07-29T03:55:48;13.02;;;10.18;;
70576;SDS011;58138;43.138;24.702;2022-07-29T03:58:17;11.98;;;10.70;;
70576;SDS011;58138;43.138;24.702;2022-07-29T04:00:43;14.05;;;10.77;;
70576;SDS011;58138;43.138;24.702;2022-07-29T04:03:09;16.02;;;11.60;;
70576;SDS011;58138;43.138;24.702;2022-07-29T04:05:35;13.65;;;11.93;;
70576;SDS011;58138;43.138;24.702;2022-07-29T04:08:01;15.35;;;11.00;;
70576;SDS011;58138;43.138;24.702;2022-07-29T04:10:26;17.70;;;11.27;;
70576;SDS011;58138;43.138;24.702;2022-07-29T04:12:52;15.40;;;10.85;;
70576;SDS011;58138;43.138;24.702;2022-07-29T04:15:18;13.05;;;10.18;;
70576;SDS011;58138;43.138;24.702;2022-07-29T04:17:43;13.82;;;10.98;;
70576;SDS011;58138;43.138;24.702;2022-07-29T04:20:09;15.15;;;10.80;;
70576;SDS011;58138;43.138;24.702;2022-07-29T04:22:38;13.65;;;10.48;;
70576;SDS011;58138;43.138;24.702;2022-07-29T04:25:06;11.93;;;10.73;;
70576;SDS011;58138;43.138;24.702;2022-07-29T04:27:32;13.13;;;10.45;;
70576;SDS011;58138;43.138;24.702;2022-07-29T04:29:58;16.92;;;10.68;;
70576;SDS011;58138;43.138;24.702;2022-07-29T04:32:24;12.55;;;10.20;;
70576;SDS011;58138;43.138;24.702;2022-07-29T04:34:50;10.73;;;9.45;;
70576;SDS011;58138;43.138;24.702;2022-07-29T04:37:15;12.13;;;10.40;;
70576;SDS011;58138;43.138;24.702;2022-07-29T04:39:41;11.52;;;10.30;;
70576;SDS011;58138;43.138;24.702;2022-07-29T04:42:06;12.35;;;11.07;;
70576;SDS011;58138;43.138;24.702;2022-07-29T04:44:32;10.57;;;9.48;;
70576;SDS011;58138;43.138;24.702;2022-07-29T04:46:57;11.90;;;10.60;;
70576;SDS011;58138;43.138;24.702;2022-07-29T04:49:23;18.40;;;15.63;;
70576;SDS011;58138;43.138;24.702;2022-07-29T04:51:48;12.07;;;9.50;;
70576;SDS011;58138;43.138;24.702;2022-07-29T04:54:14;13.50;;;9.93;;
70576;SDS011;58138;43.138;24.702;2022-07-29T04:56:39;12.30;;;9.20;;
70576;SDS011;58138;43.138;24.702;2022-07-29T04:59:06;13.25;;;9.85;;
70576;SDS011;58138;43.138;24.702;2022-07-29T05:01:32;11.98;;;10.77;;
70576;SDS011;58138;43.138;24.702;2022-07-29T05:03:57;12.48;;;9.52;;
70576;SDS011;58138;43.138;24.702;2022-07-29T05:06:22;11.45;;;9.27;;
70576;SDS011;58138;43.138;24.702;2022-07-29T05:08:48;21.02;;;14.75;;
70576;SDS011;58138;43.138;24.702;2022-07-29T05:11:13;10.18;;;9.07;;
70576;SDS011;58138;43.138;24.702;2022-07-29T05:13:39;17.23;;;9.50;;
70576;SDS011;58138;43.138;24.702;2022-07-29T05:16:04;13.57;;;9.40;;
70576;SDS011;58138;43.138;24.702;2022-07-29T05:18:30;10.20;;;8.85;;
70576;SDS011;58138;43.138;24.702;2022-07-29T05:20:55;11.13;;;10.02;;
70576;SDS011;58138;43.138;24.702;2022-07-29T05:23:21;12.35;;;10.07;;
70576;SDS011;58138;43.138;24.702;2022-07-29T05:25:47;16.95;;;8.80;;
70576;SDS011;58138;43.138;24.702;2022-07-29T05:28:12;10.02;;;8.82;;
70576;SDS011;58138;43.138;24.702;2022-07-29T05:30:38;10.45;;;9.43;;
70576;SDS011;58138;43.138;24.702;2022-07-29T05:33:03;13.07;;;8.57;;
70576;SDS011;58138;43.138;24.702;2022-07-29T05:35:29;10.80;;;8.48;;
70576;SDS011;58138;43.138;24.702;2022-07-29T05:37:54;12.05;;;9.15;;
70576;SDS011;58138;43.138;24.702;2022-07-29T05:40:20;10.43;;;9.02;;
70576;SDS011;58138;43.138;24.702;2022-07-29T05:42:45;11.02;;;9.52;;
70576;SDS011;58138;43.138;24.702;2022-07-29T05:45:11;12.43;;;9.77;;
70576;SDS011;58138;43.138;24.702;2022-07-29T05:47:36;11.18;;;9.20;;
70576;SDS011;58138;43.138;24.702;2022-07-29T05:50:02;14.35;;;9.02;;
70576;SDS011;58138;43.138;24.702;2022-07-29T05:52:29;13.05;;;9.63;;
70576;SDS011;58138;43.138;24.702;2022-07-29T05:54:54;11.57;;;9.80;;
70576;SDS011;58138;43.138;24.702;2022-07-29T05:57:23;11.05;;;9.65;;
70576;SDS011;58138;43.138;24.702;2022-07-29T05:59:49;13.93;;;9.63;;
70576;SDS011;58138;43.138;24.702;2022-07-29T06:02:15;10.43;;;9.23;;
70576;SDS011;58138;43.138;24.702;2022-07-29T06:04:41;11.75;;;9.10;;
70576;SDS011;58138;43.138;24.702;2022-07-29T06:07:07;12.85;;;9.07;;
70576;SDS011;58138;43.138;24.702;2022-07-29T06:09:33;13.23;;;9.13;;
70576;SDS011;58138;43.138;24.702;2022-07-29T06:11:59;13.10;;;10.18;;
70576;SDS011;58138;43.138;24.702;2022-07-29T06:14:25;12.27;;;9.13;;
70576;SDS011;58138;43.138;24.702;2022-07-29T06:16:51;14.48;;;8.93;;
70576;SDS011;58138;43.138;24.702;2022-07-29T06:19:18;11.98;;;8.23;;
70576;SDS011;58138;43.138;24.702;2022-07-29T06:21:44;11.15;;;8.55;;
70576;SDS011;58138;43.138;24.702;2022-07-29T06:24:10;11.98;;;9.18;;
70576;SDS011;58138;43.138;24.702;2022-07-29T06:26:37;12.70;;;8.73;;
70576;SDS011;58138;43.138;24.702;2022-07-29T06:29:03;10.38;;;9.05;;
70576;SDS011;58138;43.138;24.702;2022-07-29T06:31:28;13.05;;;9.32;;
70576;SDS011;58138;43.138;24.702;2022-07-29T06:33:53;13.27;;;8.85;;
70576;SDS011;58138;43.138;24.702;2022-07-29T06:36:19;11.68;;;8.40;;
70576;SDS011;58138;43.138;24.702;2022-07-29T06:38:45;11.80;;;8.77;;
70576;SDS011;58138;43.138;24.702;2022-07-29T06:41:10;13.70;;;8.82;;
70576;SDS011;58138;43.138;24.702;2022-07-29T06:43:40;12.98;;;9.05;;
70576;SDS011;58138;43.138;24.702;2022-07-29T06:46:11;15.15;;;10.48;;
70576;SDS011;58138;43.138;24.702;2022-07-29T06:48:38;13.73;;;8.32;;
70576;SDS011;58138;43.138;24.702;2022-07-29T06:51:05;12.00;;;8.30;;
70576;SDS011;58138;43.138;24.702;2022-07-29T06:53:31;12.68;;;11.32;;
70576;SDS011;58138;43.138;24.702;2022-07-29T06:55:57;14.52;;;9.95;;
70576;SDS011;58138;43.138;24.702;2022-07-29T06:58:24;11.15;;;8.82;;
70576;SDS011;58138;43.138;24.702;2022-07-29T07:00:50;10.18;;;9.20;;
70576;SDS011;58138;43.138;24.702;2022-07-29T07:03:16;9.90;;;8.60;;
70576;SDS011;58138;43.138;24.702;2022-07-29T07:05:42;12.82;;;8.88;;
70576;SDS011;58138;43.138;24.702;2022-07-29T07:08:07;12.88;;;8.93;;
70576;SDS011;58138;43.138;24.702;2022-07-29T07:10:33;9.40;;;8.02;;
70576;SDS011;58138;43.138;24.702;2022-07-29T07:12:59;13.20;;;9.38;;
70576;SDS011;58138;43.138;24.702;2022-07-29T07:15:25;13.50;;;9.07;;
70576;SDS011;58138;43.138;24.702;2022-07-29T07:17:50;11.80;;;8.95;;
70576;SDS011;58138;43.138;24.702;2022-07-29T07:20:16;15.13;;;8.55;;
70576;SDS011;58138;43.138;24.702;2022-07-29T07:22:42;11.98;;;8.38;;
70576;SDS011;58138;43.138;24.702;2022-07-29T07:25:08;9.40;;;8.52;;
70576;SDS011;58138;43.138;24.702;2022-07-29T07:27:34;11.68;;;8.48;;
70576;SDS011;58138;43.138;24.702;2022-07-29T07:30:00;11.60;;;10.40;;
70576;SDS011;58138;43.138;24.702;2022-07-29T07:32:25;12.18;;;9.32;;
70576;SDS011;58138;43.138;24.702;2022-07-29T07:34:51;10.25;;;8.70;;
70576;SDS011;58138;43.138;24.702;2022-07-29T07:37:16;12.05;;;8.88;;
70576;SDS011;58138;43.138;24.702;2022-07-29T07:39:44;11.80;;;8.70;;
70576;SDS011;58138;43.138;24.702;2022-07-29T07:42:09;13.27;;;9.35;;
70576;SDS011;58138;43.138;24.702;2022-07-29T07:44:37;9.77;;;8.50;;
70576;SDS011;58138;43.138;24.702;2022-07-29T07:47:05;10.98;;;9.27;;
70576;SDS011;58138;43.138;24.702;2022-07-29T07:49:31;12.48;;;9.07;;
70576;SDS011;58138;43.138;24.702;2022-07-29T07:51:57;15.50;;;8.93;;
70576;SDS011;58138;43.138;24.702;2022-07-29T07:54:22;12.05;;;8.88;;
70576;SDS011;58138;43.138;24.702;2022-07-29T07:56:47;19.02;;;9.23;;
70576;SDS011;58138;43.138;24.702;2022-07-29T07:59:14;14.48;;;8.95;;
70576;SDS011;58138;43.138;24.702;2022-07-29T08:01:40;10.82;;;8.35;;
70576;SDS011;58138;43.138;24.702;2022-07-29T08:04:06;12.85;;;8.18;;
70576;SDS011;58138;43.138;24.702;2022-07-29T08:06:32;11.68;;;8.13;;
70576;SDS011;58138;43.138;24.702;2022-07-29T08:09:00;12.40;;;7.82;;
70576;SDS011;58138;43.138;24.702;2022-07-29T08:11:25;11.75;;;8.10;;
70576;SDS011;58138;43.138;24.702;2022-07-29T08:13:51;9.88;;;7.55;;
70576;SDS011;58138;43.138;24.702;2022-07-29T08:16:17;14.13;;;7.97;;
70576;SDS011;58138;43.138;24.702;2022-07-29T08:18:43;50.08;;;41.17;;
70576;SDS011;58138;43.138;24.702;2022-07-29T08:21:09;11.45;;;7.53;;
70576;SDS011;58138;43.138;24.702;2022-07-29T08:23:35;10.07;;;7.55;;
70576;SDS011;58138;43.138;24.702;2022-07-29T08:26:10;8.93;;;7.63;;
70576;SDS011;58138;43.138;24.702;2022-07-29T08:31:05;9.63;;;7.82;;
70576;SDS011;58138;43.138;24.702;2022-07-29T08:33:30;10.27;;;7.38;;
70576;SDS011;58138;43.138;24.702;2022-07-29T08:35:56;8.38;;;7.43;;
70576;SDS011;58138;43.138;24.702;2022-07-29T08:38:22;8.18;;;6.90;;
70576;SDS011;58138;43.138;24.702;2022-07-29T08:40:47;11.82;;;6.50;;
70576;SDS011;58138;43.138;24.702;2022-07-29T08:43:12;8.95;;;6.97;;
70576;SDS011;58138;43.138;24.702;2022-07-29T08:45:42;7.70;;;6.90;;
70576;SDS011;58138;43.138;24.702;2022-07-29T08:48:11;10.40;;;7.18;;
70576;SDS011;58138;43.138;24.702;2022-07-29T08:50:37;7.20;;;6.28;;
70576;SDS011;58138;43.138;24.702;2022-07-29T08:53:03;7.65;;;6.70;;
70576;SDS011;58138;43.138;24.702;2022-07-29T08:55:29;7.00;;;6.30;;
70576;SDS011;58138;43.138;24.702;2022-07-29T08:57:55;10.32;;;6.85;;
70576;SDS011;58138;43.138;24.702;2022-07-29T09:00:20;6.80;;;6.15;;
70576;SDS011;58138;43.138;24.702;2022-07-29T09:02:47;9.68;;;5.60;;
70576;SDS011;58138;43.138;24.702;2022-07-29T09:05:16;7.65;;;5.78;;
70576;SDS011;58138;43.138;24.702;2022-07-29T09:07:42;6.60;;;6.00;;
70576;SDS011;58138;43.138;24.702;2022-07-29T09:10:09;6.78;;;6.18;;
70576;SDS011;58138;43.138;24.702;2022-07-29T09:12:35;8.73;;;5.90;;
70576;SDS011;58138;43.138;24.702;2022-07-29T09:15:00;6.50;;;5.30;;
70576;SDS011;58138;43.138;24.702;2022-07-29T09:20:11;5.95;;;5.20;;
70576;SDS011;58138;43.138;24.702;2022-07-29T09:22:38;8.25;;;5.55;;
70576;SDS011;58138;43.138;24.702;2022-07-29T09:25:04;6.20;;;5.30;;
70576;SDS011;58138;43.138;24.702;2022-07-29T09:27:29;5.75;;;5.25;;
70576;SDS011;58138;43.138;24.702;2022-07-29T09:29:58;7.70;;;6.13;;
70576;SDS011;58138;43.138;24.702;2022-07-29T09:32:26;8.07;;;4.63;;
70576;SDS011;58138;43.138;24.702;2022-07-29T09:35:13;7.95;;;4.97;;
70576;SDS011;58138;43.138;24.702;2022-07-29T09:37:47;10.65;;;5.43;;
70576;SDS011;58138;43.138;24.702;2022-07-29T09:40:20;5.72;;;4.90;;
70576;SDS011;58138;43.138;24.702;2022-07-29T09:42:49;6.18;;;5.47;;
70576;SDS011;58138;43.138;24.702;2022-07-29T09:45:36;7.18;;;5.43;;
70576;SDS011;58138;43.138;24.702;2022-07-29T09:48:16;5.50;;;5.00;;
70576;SDS011;58138;43.138;24.702;2022-07-29T09:50:46;7.72;;;5.20;;
70576;SDS011;58138;43.138;24.702;2022-07-29T09:53:56;6.18;;;5.10;;
70576;SDS011;58138;43.138;24.702;2022-07-29T09:56:04;6.65;;;5.25;;
70576;SDS011;58138;43.138;24.702;2022-07-29T09:58:30;9.30;;;5.72;;
70576;SDS011;58138;43.138;24.702;2022-07-29T10:00:58;5.65;;;5.15;;
70576;SDS011;58138;43.138;24.702;2022-07-29T10:03:24;7.47;;;5.55;;
70576;SDS011;58138;43.138;24.702;2022-07-29T10:06:09;6.13;;;5.53;;
70576;SDS011;58138;43.138;24.702;2022-07-29T10:08:36;7.35;;;5.65;;
70576;SDS011;58138;43.138;24.702;2022-07-29T10:11:12;6.80;;;5.40;;
70576;SDS011;58138;43.138;24.702;2022-07-29T10:13:38;6.97;;;5.10;;
70576;SDS011;58138;43.138;24.702;2022-07-29T10:16:05;7.72;;;5.57;;
70576;SDS011;58138;43.138;24.702;2022-07-29T10:18:31;5.85;;;5.25;;
70576;SDS011;58138;43.138;24.702;2022-07-29T10:20:57;6.00;;;5.38;;
70576;SDS011;58138;43.138;24.702;2022-07-29T10:23:23;9.25;;;5.53;;
70576;SDS011;58138;43.138;24.702;2022-07-29T10:25:49;6.57;;;5.20;;
70576;SDS011;58138;43.138;24.702;2022-07-29T10:28:14;7.70;;;5.45;;
70576;SDS011;58138;43.138;24.702;2022-07-29T10:30:40;6.13;;;5.45;;
70576;SDS011;58138;43.138;24.702;2022-07-29T10:44:20;5.20;;;4.50;;
70576;SDS011;58138;43.138;24.702;2022-07-29T10:46:47;5.40;;;4.82;;
70576;SDS011;58138;43.138;24.702;2022-07-29T10:49:14;6.80;;;4.95;;
70576;SDS011;58138;43.138;24.702;2022-07-29T10:57:17;7.15;;;4.25;;
70576;SDS011;58138;43.138;24.702;2022-07-29T11:07:26;5.35;;;4.30;;
70576;SDS011;58138;43.138;24.702;2022-07-29T11:15:05;7.53;;;4.13;;
70576;SDS011;58138;43.138;24.702;2022-07-29T11:20:31;5.32;;;4.40;;
70576;SDS011;58138;43.138;24.702;2022-07-29T11:23:00;5.18;;;4.38;;
70576;SDS011;58138;43.138;24.702;2022-07-29T11:25:26;5.50;;;4.43;;
70576;SDS011;58138;43.138;24.702;2022-07-29T11:27:52;5.55;;;4.22;;
70576;SDS011;58138;43.138;24.702;2022-07-29T11:30:19;5.50;;;4.30;;
70576;SDS011;58138;43.138;24.702;2022-07-29T11:32:45;4.28;;;3.97;;
70576;SDS011;58138;43.138;24.702;2022-07-29T11:37:42;5.43;;;4.35;;
70576;SDS011;58138;43.138;24.702;2022-07-29T11:40:09;4.88;;;4.43;;
70576;SDS011;58138;43.138;24.702;2022-07-29T11:42:37;6.97;;;4.10;;
70576;SDS011;58138;43.138;24.702;2022-07-29T11:45:08;5.82;;;4.50;;
70576;SDS011;58138;43.138;24.702;2022-07-29T11:47:35;6.00;;;3.95;;
70576;SDS011;58138;43.138;24.702;2022-07-29T11:50:26;6.80;;;4.65;;
70576;SDS011;58138;43.138;24.702;2022-07-29T11:52:56;7.00;;;3.80;;
70576;SDS011;58138;43.138;24.702;2022-07-29T11:55:22;7.85;;;4.22;;
70576;SDS011;58138;43.138;24.702;2022-07-29T11:57:58;4.65;;;4.18;;
70576;SDS011;58138;43.138;24.702;2022-07-29T12:00:38;5.53;;;4.10;;
70576;SDS011;58138;43.138;24.702;2022-07-29T12:03:06;5.07;;;4.57;;
70576;SDS011;58138;43.138;24.702;2022-07-29T12:05:51;8.10;;;4.45;;
70576;SDS011;58138;43.138;24.702;2022-07-29T12:08:23;6.78;;;4.35;;
70576;SDS011;58138;43.138;24.702;2022-07-29T12:10:51;4.82;;;4.43;;
70576;SDS011;58138;43.138;24.702;2022-07-29T12:13:18;6.13;;;4.65;;
70576;SDS011;58138;43.138;24.702;2022-07-29T12:15:56;5.25;;;4.38;;
70576;SDS011;58138;43.138;24.702;2022-07-29T12:18:23;7.22;;;4.63;;
70576;SDS011;58138;43.138;24.702;2022-07-29T12:20:56;5.38;;;4.40;;
70576;SDS011;58138;43.138;24.702;2022-07-29T12:23:28;8.00;;;4.45;;
70576;SDS011;58138;43.138;24.702;2022-07-29T12:25:57;8.75;;;4.70;;
70576;SDS011;58138;43.138;24.702;2022-07-29T12:28:23;6.25;;;4.32;;
70576;SDS011;58138;43.138;24.702;2022-07-29T12:30:49;5.45;;;3.90;;
70576;SDS011;58138;43.138;24.702;2022-07-29T12:33:20;5.93;;;4.53;;
70576;SDS011;58138;43.138;24.702;2022-07-29T12:35:56;4.68;;;4.20;;
70576;SDS011;58138;43.138;24.702;2022-07-29T12:38:24;4.72;;;4.00;;
70576;SDS011;58138;43.138;24.702;2022-07-29T12:40:51;5.45;;;3.88;;
70576;SDS011;58138;43.138;24.702;2022-07-29T12:43:18;5.53;;;4.18;;
70576;SDS011;58138;43.138;24.702;2022-07-29T12:45:49;7.60;;;4.53;;
70576;SDS011;58138;43.138;24.702;2022-07-29T12:48:16;4.95;;;4.45;;
70576;SDS011;58138;43.138;24.702;2022-07-29T12:50:53;7.00;;;6.32;;
70576;SDS011;58138;43.138;24.702;2022-07-29T12:53:23;5.90;;;5.00;;
70576;SDS011;58138;43.138;24.702;2022-07-29T12:55:50;6.25;;;4.53;;
70576;SDS011;58138;43.138;24.702;2022-07-29T12:58:41;6.25;;;4.35;;
70576;SDS011;58138;43.138;24.702;2022-07-29T13:01:14;5.18;;;4.50;;
70576;SDS011;58138;43.138;24.702;2022-07-29T13:03:51;5.90;;;5.00;;
70576;SDS011;58138;43.138;24.702;2022-07-29T13:06:40;7.20;;;5.50;;
70576;SDS011;58138;43.138;24.702;2022-07-29T13:09:08;6.07;;;4.60;;
70576;SDS011;58138;43.138;24.702;2022-07-29T13:11:37;9.05;;;5.05;;
70576;SDS011;58138;43.138;24.702;2022-07-29T13:14:04;7.22;;;4.57;;
70576;SDS011;58138;43.138;24.702;2022-07-29T13:16:31;5.45;;;4.50;;
70576;SDS011;58138;43.138;24.702;2022-07-29T13:19:03;5.80;;;4.55;;
70576;SDS011;58138;43.138;24.702;2022-07-29T13:21:30;9.25;;;4.90;;
70576;SDS011;58138;43.138;24.702;2022-07-29T13:23:55;9.32;;;4.43;;
70576;SDS011;58138;43.138;24.702;2022-07-29T13:26:21;7.55;;;4.50;;
70576;SDS011;58138;43.138;24.702;2022-07-29T13:28:46;6.05;;;4.28;;
70576;SDS011;58138;43.138;24.702;2022-07-29T13:31:12;4.40;;;3.97;;
70576;SDS011;58138;43.138;24.702;2022-07-29T13:33:37;5.35;;;4.45;;
70576;SDS011;58138;43.138;24.702;2022-07-29T13:36:03;5.95;;;4.25;;
70576;SDS011;58138;43.138;24.702;2022-07-29T13:38:28;4.30;;;3.88;;
70576;SDS011;58138;43.138;24.702;2022-07-29T13:40:55;5.30;;;4.07;;
70576;SDS011;58138;43.138;24.702;2022-07-29T13:43:20;6.65;;;3.95;;
70576;SDS011;58138;43.138;24.702;2022-07-29T13:45:46;3.92;;;3.25;;
70576;SDS011;58138;43.138;24.702;2022-07-29T13:48:11;7.00;;;3.58;;
70576;SDS011;58138;43.138;24.702;2022-07-29T13:50:37;4.03;;;3.65;;
70576;SDS011;58138;43.138;24.702;2022-07-29T13:53:02;4.40;;;3.30;;
70576;SDS011;58138;43.138;24.702;2022-07-29T13:55:28;6.75;;;3.30;;
70576;SDS011;58138;43.138;24.702;2022-07-29T13:57:54;6.70;;;3.42;;
70576;SDS011;58138;43.138;24.702;2022-07-29T14:00:20;5.55;;;3.08;;
70576;SDS011;58138;43.138;24.702;2022-07-29T14:02:45;5.47;;;3.47;;
70576;SDS011;58138;43.138;24.702;2022-07-29T14:05:11;3.60;;;3.30;;
70576;SDS011;58138;43.138;24.702;2022-07-29T14:07:37;5.32;;;3.83;;
70576;SDS011;58138;43.138;24.702;2022-07-29T14:10:04;3.83;;;3.45;;
70576;SDS011;58138;43.138;24.702;2022-07-29T14:12:30;3.60;;;3.30;;
70576;SDS011;58138;43.138;24.702;2022-07-29T14:14:55;7.47;;;3.47;;
70576;SDS011;58138;43.138;24.702;2022-07-29T14:17:21;3.97;;;3.25;;
70576;SDS011;58138;43.138;24.702;2022-07-29T14:19:46;4.50;;;2.95;;
70576;SDS011;58138;43.138;24.702;2022-07-29T14:22:12;4.60;;;3.30;;
70576;SDS011;58138;43.138;24.702;2022-07-29T14:24:37;4.60;;;2.85;;
70576;SDS011;58138;43.138;24.702;2022-07-29T14:27:04;3.67;;;2.80;;
70576;SDS011;58138;43.138;24.702;2022-07-29T14:29:30;4.97;;;2.78;;
70576;SDS011;58138;43.138;24.702;2022-07-29T14:31:55;4.03;;;3.10;;
70576;SDS011;58138;43.138;24.702;2022-07-29T14:34:21;4.63;;;3.10;;
70576;SDS011;58138;43.138;24.702;2022-07-29T14:36:46;7.30;;;3.63;;
70576;SDS011;58138;43.138;24.702;2022-07-29T14:39:12;5.15;;;3.08;;
70576;SDS011;58138;43.138;24.702;2022-07-29T14:41:37;3.30;;;3.00;;
70576;SDS011;58138;43.138;24.702;2022-07-29T14:44:03;5.28;;;3.00;;
70576;SDS011;58138;43.138;24.702;2022-07-29T14:46:29;5.07;;;3.08;;
70576;SDS011;58138;43.138;24.702;2022-07-29T14:48:54;9.15;;;2.90;;
70576;SDS011;58138;43.138;24.702;2022-07-29T14:51:20;4.38;;;2.70;;
70576;SDS011;58138;43.138;24.702;2022-07-29T14:53:45;6.60;;;2.90;;
70576;SDS011;58138;43.138;24.702;2022-07-29T14:56:11;3.08;;;2.78;;
70576;SDS011;58138;43.138;24.702;2022-07-29T14:58:36;2.72;;;2.45;;
70576;SDS011;58138;43.138;24.702;2022-07-29T15:01:02;2.95;;;2.75;;
70576;SDS011;58138;43.138;24.702;2022-07-29T15:03:27;6.57;;;2.63;;
70576;SDS011;58138;43.138;24.702;2022-07-29T15:05:54;2.50;;;2.22;;
70576;SDS011;58138;43.138;24.702;2022-07-29T15:08:19;2.83;;;2.58;;
70576;SDS011;58138;43.138;24.702;2022-07-29T15:10:45;2.83;;;2.60;;
70576;SDS011;58138;43.138;24.702;2022-07-29T15:13:11;2.72;;;2.30;;
70576;SDS011;58138;43.138;24.702;2022-07-29T15:15:38;3.15;;;2.30;;
70576;SDS011;58138;43.138;24.702;2022-07-29T15:18:04;3.50;;;2.97;;
70576;SDS011;58138;43.138;24.702;2022-07-29T15:20:29;4.88;;;2.50;;